SETU/TUA METAR and TAF weather

Enter ICAO airport designator
Station Type Date Time Source
SETU METAR 2019/10/14 21:00 UTC NOAA

SETU 142100Z 08006KT 9999 BKN023 15/09 Q1029


Station Type Date Time Source
SETU Decoded METAR 2019/10/14 21:00 UTC NOAA

Tulcan / El Rosal, Ecuador (SETU) 00-49N 077-42W
Oct 14, 2019 - 05:00 PM EDT / 2019.10.14 2100 UTC
Wind: from the E (080 degrees) at 7 MPH (6 KT):0
Visibility: greater than 7 mile(s):0
Sky conditions: mostly cloudy
Temperature: 59 F (15 C)
Dew Point: 48 F (9 C)
Relative Humidity: 67%
Pressure (altimeter): 30.39 in. Hg (1029 hPa)
ob: SETU 142100Z 08006KT 9999 BKN023 15/09 Q1029
cycle: 21

Station Type Date Time Source
SETU TAF UTC NOAA

Error!

Example: see airport list